sensor_id;sensor_type;location;lat;lon;timestamp;P1;durP1;ratioP1;P2;durP2;ratioP2
44850;SDS011;30583;48.714;9.386;2022-08-19T00:02:04;10.40;;;9.40;;
44850;SDS011;30583;48.714;9.386;2022-08-19T00:04:31;10.63;;;9.25;;
44850;SDS011;30583;48.714;9.386;2022-08-19T00:07:01;12.38;;;9.40;;
44850;SDS011;30583;48.714;9.386;2022-08-19T00:09:28;12.02;;;9.32;;
44850;SDS011;30583;48.714;9.386;2022-08-19T00:11:54;9.90;;;8.90;;
44850;SDS011;30583;48.714;9.386;2022-08-19T00:14:21;15.02;;;9.82;;
44850;SDS011;30583;48.714;9.386;2022-08-19T00:16:47;10.05;;;9.05;;
44850;SDS011;30583;48.714;9.386;2022-08-19T00:19:14;12.55;;;9.68;;
44850;SDS011;30583;48.714;9.386;2022-08-19T00:21:41;11.38;;;10.27;;
44850;SDS011;30583;48.714;9.386;2022-08-19T00:24:07;9.95;;;8.93;;
44850;SDS011;30583;48.714;9.386;2022-08-19T00:26:35;10.57;;;9.48;;
44850;SDS011;30583;48.714;9.386;2022-08-19T00:29:05;11.20;;;10.02;;
44850;SDS011;30583;48.714;9.386;2022-08-19T00:31:33;11.23;;;9.20;;
44850;SDS011;30583;48.714;9.386;2022-08-19T00:33:58;9.95;;;8.80;;
44850;SDS011;30583;48.714;9.386;2022-08-19T00:36:24;10.93;;;9.38;;
44850;SDS011;30583;48.714;9.386;2022-08-19T00:38:50;9.75;;;8.73;;
44850;SDS011;30583;48.714;9.386;2022-08-19T00:41:18;11.63;;;9.55;;
44850;SDS011;30583;48.714;9.386;2022-08-19T00:43:59;11.00;;;8.90;;
44850;SDS011;30583;48.714;9.386;2022-08-19T00:46:25;11.82;;;9.68;;
44850;SDS011;30583;48.714;9.386;2022-08-19T00:48:51;10.77;;;9.68;;
44850;SDS011;30583;48.714;9.386;2022-08-19T00:51:17;10.48;;;9.38;;
44850;SDS011;30583;48.714;9.386;2022-08-19T00:53:42;11.27;;;10.07;;
44850;SDS011;30583;48.714;9.386;2022-08-19T00:56:08;12.65;;;10.80;;
44850;SDS011;30583;48.714;9.386;2022-08-19T00:58:36;12.05;;;10.27;;
44850;SDS011;30583;48.714;9.386;2022-08-19T01:01:03;12.10;;;10.80;;
44850;SDS011;30583;48.714;9.386;2022-08-19T01:03:29;12.85;;;10.68;;
44850;SDS011;30583;48.714;9.386;2022-08-19T01:05:55;11.68;;;10.48;;
44850;SDS011;30583;48.714;9.386;2022-08-19T01:08:21;12.38;;;10.68;;
44850;SDS011;30583;48.714;9.386;2022-08-19T01:10:52;12.63;;;10.45;;
44850;SDS011;30583;48.714;9.386;2022-08-19T01:13:22;12.25;;;10.65;;
44850;SDS011;30583;48.714;9.386;2022-08-19T01:16:01;12.95;;;11.05;;
44850;SDS011;30583;48.714;9.386;2022-08-19T01:18:32;13.63;;;11.13;;
44850;SDS011;30583;48.714;9.386;2022-08-19T01:21:05;13.40;;;11.25;;
44850;SDS011;30583;48.714;9.386;2022-08-19T01:23:35;13.87;;;12.27;;
44850;SDS011;30583;48.714;9.386;2022-08-19T01:26:09;16.63;;;14.93;;
44850;SDS011;30583;48.714;9.386;2022-08-19T01:28:36;13.48;;;11.38;;
44850;SDS011;30583;48.714;9.386;2022-08-19T01:31:03;13.18;;;10.43;;
44850;SDS011;30583;48.714;9.386;2022-08-19T01:33:29;12.38;;;10.27;;
44850;SDS011;30583;48.714;9.386;2022-08-19T01:36:03;13.18;;;10.73;;
44850;SDS011;30583;48.714;9.386;2022-08-19T01:38:30;12.48;;;11.10;;
44850;SDS011;30583;48.714;9.386;2022-08-19T01:41:01;14.15;;;10.82;;
44850;SDS011;30583;48.714;9.386;2022-08-19T01:43:26;14.32;;;10.52;;
44850;SDS011;30583;48.714;9.386;2022-08-19T01:45:52;15.27;;;11.00;;
44850;SDS011;30583;48.714;9.386;2022-08-19T01:48:18;12.80;;;10.95;;
44850;SDS011;30583;48.714;9.386;2022-08-19T01:50:43;13.90;;;11.30;;
44850;SDS011;30583;48.714;9.386;2022-08-19T01:53:10;13.32;;;10.93;;
44850;SDS011;30583;48.714;9.386;2022-08-19T01:55:36;12.35;;;11.02;;
44850;SDS011;30583;48.714;9.386;2022-08-19T01:58:06;12.43;;;10.88;;
44850;SDS011;30583;48.714;9.386;2022-08-19T02:00:33;14.88;;;11.50;;
44850;SDS011;30583;48.714;9.386;2022-08-19T02:02:59;14.35;;;11.68;;
44850;SDS011;30583;48.714;9.386;2022-08-19T02:05:25;12.63;;;11.00;;
44850;SDS011;30583;48.714;9.386;2022-08-19T02:07:54;13.32;;;11.75;;
44850;SDS011;30583;48.714;9.386;2022-08-19T02:10:21;16.33;;;11.35;;
44850;SDS011;30583;48.714;9.386;2022-08-19T02:12:48;14.77;;;12.40;;
44850;SDS011;30583;48.714;9.386;2022-08-19T02:15:14;13.45;;;11.30;;
44850;SDS011;30583;48.714;9.386;2022-08-19T02:17:41;12.27;;;10.85;;
44850;SDS011;30583;48.714;9.386;2022-08-19T02:20:07;12.93;;;11.10;;
44850;SDS011;30583;48.714;9.386;2022-08-19T02:22:34;14.55;;;11.77;;
44850;SDS011;30583;48.714;9.386;2022-08-19T02:25:00;12.45;;;11.15;;
44850;SDS011;30583;48.714;9.386;2022-08-19T02:27:26;13.10;;;11.40;;
44850;SDS011;30583;48.714;9.386;2022-08-19T02:29:52;14.05;;;12.15;;
44850;SDS011;30583;48.714;9.386;2022-08-19T02:32:18;13.48;;;11.70;;
44850;SDS011;30583;48.714;9.386;2022-08-19T02:34:44;13.70;;;11.65;;
44850;SDS011;30583;48.714;9.386;2022-08-19T02:37:11;13.40;;;11.75;;
44850;SDS011;30583;48.714;9.386;2022-08-19T02:39:57;16.20;;;12.43;;
44850;SDS011;30583;48.714;9.386;2022-08-19T02:42:22;14.20;;;12.25;;
44850;SDS011;30583;48.714;9.386;2022-08-19T02:44:48;15.35;;;12.70;;
44850;SDS011;30583;48.714;9.386;2022-08-19T02:47:14;15.18;;;13.35;;
44850;SDS011;30583;48.714;9.386;2022-08-19T02:49:40;15.35;;;12.05;;
44850;SDS011;30583;48.714;9.386;2022-08-19T02:52:06;12.90;;;11.55;;
44850;SDS011;30583;48.714;9.386;2022-08-19T02:54:31;13.85;;;12.43;;
44850;SDS011;30583;48.714;9.386;2022-08-19T02:56:57;14.13;;;11.75;;
44850;SDS011;30583;48.714;9.386;2022-08-19T02:59:23;16.40;;;12.40;;
44850;SDS011;30583;48.714;9.386;2022-08-19T03:01:49;12.95;;;11.43;;
44850;SDS011;30583;48.714;9.386;2022-08-19T03:04:15;18.13;;;12.98;;
44850;SDS011;30583;48.714;9.386;2022-08-19T03:06:42;16.13;;;13.82;;
44850;SDS011;30583;48.714;9.386;2022-08-19T03:09:09;16.45;;;13.43;;
44850;SDS011;30583;48.714;9.386;2022-08-19T03:11:35;20.73;;;13.82;;
44850;SDS011;30583;48.714;9.386;2022-08-19T03:14:02;16.23;;;13.35;;
44850;SDS011;30583;48.714;9.386;2022-08-19T03:16:30;17.98;;;13.15;;
44850;SDS011;30583;48.714;9.386;2022-08-19T03:19:00;15.00;;;12.13;;
44850;SDS011;30583;48.714;9.386;2022-08-19T03:21:27;15.73;;;12.52;;
44850;SDS011;30583;48.714;9.386;2022-08-19T03:23:55;14.95;;;13.23;;
44850;SDS011;30583;48.714;9.386;2022-08-19T03:26:21;16.52;;;13.32;;
44850;SDS011;30583;48.714;9.386;2022-08-19T03:28:47;16.92;;;13.50;;
44850;SDS011;30583;48.714;9.386;2022-08-19T03:31:15;16.27;;;12.65;;
44850;SDS011;30583;48.714;9.386;2022-08-19T03:33:43;20.08;;;14.73;;
44850;SDS011;30583;48.714;9.386;2022-08-19T03:36:16;17.95;;;15.38;;
44850;SDS011;30583;48.714;9.386;2022-08-19T03:38:50;18.30;;;15.30;;
44850;SDS011;30583;48.714;9.386;2022-08-19T03:41:22;20.55;;;15.80;;
44850;SDS011;30583;48.714;9.386;2022-08-19T03:43:51;19.23;;;16.73;;
44850;SDS011;30583;48.714;9.386;2022-08-19T03:46:19;19.52;;;16.05;;
44850;SDS011;30583;48.714;9.386;2022-08-19T03:48:47;18.50;;;16.52;;
44850;SDS011;30583;48.714;9.386;2022-08-19T03:51:24;20.27;;;16.38;;
44850;SDS011;30583;48.714;9.386;2022-08-19T03:54:02;21.00;;;17.77;;
44850;SDS011;30583;48.714;9.386;2022-08-19T03:56:30;22.00;;;17.35;;
44850;SDS011;30583;48.714;9.386;2022-08-19T03:58:56;20.17;;;16.55;;
44850;SDS011;30583;48.714;9.386;2022-08-19T04:01:23;23.63;;;17.05;;
44850;SDS011;30583;48.714;9.386;2022-08-19T04:03:51;16.67;;;14.77;;
44850;SDS011;30583;48.714;9.386;2022-08-19T04:06:19;17.33;;;14.75;;
44850;SDS011;30583;48.714;9.386;2022-08-19T04:08:47;16.98;;;14.82;;
44850;SDS011;30583;48.714;9.386;2022-08-19T04:11:16;17.80;;;15.13;;
44850;SDS011;30583;48.714;9.386;2022-08-19T04:13:45;17.63;;;13.75;;
44850;SDS011;30583;48.714;9.386;2022-08-19T04:16:11;14.93;;;13.13;;
44850;SDS011;30583;48.714;9.386;2022-08-19T04:18:37;18.23;;;13.93;;
44850;SDS011;30583;48.714;9.386;2022-08-19T04:21:04;16.38;;;13.50;;
44850;SDS011;30583;48.714;9.386;2022-08-19T04:23:31;15.98;;;13.48;;
44850;SDS011;30583;48.714;9.386;2022-08-19T04:25:57;17.58;;;15.48;;
44850;SDS011;30583;48.714;9.386;2022-08-19T04:28:23;14.75;;;13.20;;
44850;SDS011;30583;48.714;9.386;2022-08-19T04:30:51;17.30;;;14.90;;
44850;SDS011;30583;48.714;9.386;2022-08-19T04:33:18;17.90;;;15.32;;
44850;SDS011;30583;48.714;9.386;2022-08-19T04:35:48;20.55;;;16.70;;
44850;SDS011;30583;48.714;9.386;2022-08-19T04:38:16;18.33;;;15.13;;
44850;SDS011;30583;48.714;9.386;2022-08-19T04:40:45;21.10;;;17.40;;
44850;SDS011;30583;48.714;9.386;2022-08-19T04:43:31;22.52;;;17.13;;
44850;SDS011;30583;48.714;9.386;2022-08-19T04:45:58;18.38;;;15.30;;
44850;SDS011;30583;48.714;9.386;2022-08-19T04:48:28;23.60;;;19.33;;
44850;SDS011;30583;48.714;9.386;2022-08-19T04:50:55;21.52;;;17.33;;
44850;SDS011;30583;48.714;9.386;2022-08-19T04:53:26;21.15;;;16.88;;
44850;SDS011;30583;48.714;9.386;2022-08-19T04:55:53;25.45;;;19.30;;
44850;SDS011;30583;48.714;9.386;2022-08-19T04:58:21;25.35;;;20.35;;
44850;SDS011;30583;48.714;9.386;2022-08-19T05:00:47;22.25;;;18.27;;
44850;SDS011;30583;48.714;9.386;2022-08-19T05:03:12;23.23;;;17.42;;
44850;SDS011;30583;48.714;9.386;2022-08-19T05:05:42;23.55;;;18.67;;
44850;SDS011;30583;48.714;9.386;2022-08-19T05:08:13;24.20;;;19.73;;
44850;SDS011;30583;48.714;9.386;2022-08-19T05:10:44;18.98;;;14.90;;
44850;SDS011;30583;48.714;9.386;2022-08-19T05:13:14;25.70;;;19.23;;
44850;SDS011;30583;48.714;9.386;2022-08-19T05:15:41;24.95;;;18.55;;
44850;SDS011;30583;48.714;9.386;2022-08-19T05:18:07;24.88;;;16.67;;
44850;SDS011;30583;48.714;9.386;2022-08-19T05:20:52;24.95;;;14.45;;
44850;SDS011;30583;48.714;9.386;2022-08-19T05:26:02;22.67;;;18.42;;
44850;SDS011;30583;48.714;9.386;2022-08-19T05:28:27;22.25;;;18.90;;
44850;SDS011;30583;48.714;9.386;2022-08-19T05:30:53;22.48;;;17.70;;
44850;SDS011;30583;48.714;9.386;2022-08-19T05:33:20;22.23;;;18.58;;
44850;SDS011;30583;48.714;9.386;2022-08-19T05:35:47;21.58;;;17.92;;
44850;SDS011;30583;48.714;9.386;2022-08-19T05:38:14;21.20;;;17.63;;
44850;SDS011;30583;48.714;9.386;2022-08-19T05:40:43;24.38;;;18.88;;
44850;SDS011;30583;48.714;9.386;2022-08-19T05:43:13;23.13;;;18.35;;
44850;SDS011;30583;48.714;9.386;2022-08-19T05:45:41;24.63;;;19.58;;
44850;SDS011;30583;48.714;9.386;2022-08-19T05:48:07;23.38;;;18.65;;
44850;SDS011;30583;48.714;9.386;2022-08-19T05:50:36;23.60;;;19.58;;
44850;SDS011;30583;48.714;9.386;2022-08-19T05:53:05;22.17;;;18.95;;
44850;SDS011;30583;48.714;9.386;2022-08-19T05:55:31;23.10;;;19.30;;
44850;SDS011;30583;48.714;9.386;2022-08-19T05:57:57;21.75;;;18.55;;
44850;SDS011;30583;48.714;9.386;2022-08-19T06:00:23;22.95;;;18.98;;
44850;SDS011;30583;48.714;9.386;2022-08-19T06:02:49;26.48;;;18.80;;
44850;SDS011;30583;48.714;9.386;2022-08-19T06:05:15;25.55;;;19.60;;
44850;SDS011;30583;48.714;9.386;2022-08-19T06:07:41;25.88;;;19.45;;
44850;SDS011;30583;48.714;9.386;2022-08-19T06:10:08;24.02;;;18.40;;
44850;SDS011;30583;48.714;9.386;2022-08-19T06:12:36;23.90;;;19.88;;
44850;SDS011;30583;48.714;9.386;2022-08-19T06:15:09;26.25;;;19.42;;
44850;SDS011;30583;48.714;9.386;2022-08-19T06:17:36;25.08;;;19.52;;
44850;SDS011;30583;48.714;9.386;2022-08-19T06:20:06;26.70;;;18.80;;
44850;SDS011;30583;48.714;9.386;2022-08-19T06:22:37;26.23;;;19.77;;
44850;SDS011;30583;48.714;9.386;2022-08-19T06:25:07;23.90;;;19.15;;
44850;SDS011;30583;48.714;9.386;2022-08-19T06:27:34;23.15;;;18.95;;
44850;SDS011;30583;48.714;9.386;2022-08-19T06:30:00;23.63;;;19.50;;
44850;SDS011;30583;48.714;9.386;2022-08-19T06:32:27;22.65;;;19.23;;
44850;SDS011;30583;48.714;9.386;2022-08-19T06:34:52;23.98;;;18.55;;
44850;SDS011;30583;48.714;9.386;2022-08-19T06:37:18;24.17;;;19.98;;
44850;SDS011;30583;48.714;9.386;2022-08-19T06:39:44;23.10;;;18.65;;
44850;SDS011;30583;48.714;9.386;2022-08-19T06:42:10;22.80;;;19.52;;
44850;SDS011;30583;48.714;9.386;2022-08-19T06:44:38;23.60;;;19.17;;
44850;SDS011;30583;48.714;9.386;2022-08-19T06:47:07;26.08;;;20.92;;
44850;SDS011;30583;48.714;9.386;2022-08-19T06:49:34;24.80;;;20.20;;
44850;SDS011;30583;48.714;9.386;2022-08-19T06:52:01;24.73;;;20.45;;
44850;SDS011;30583;48.714;9.386;2022-08-19T06:54:28;25.88;;;20.80;;
44850;SDS011;30583;48.714;9.386;2022-08-19T06:56:59;25.17;;;20.50;;
44850;SDS011;30583;48.714;9.386;2022-08-19T06:59:29;27.02;;;20.23;;
44850;SDS011;30583;48.714;9.386;2022-08-19T07:01:58;28.38;;;21.15;;
44850;SDS011;30583;48.714;9.386;2022-08-19T07:04:29;23.05;;;19.65;;
44850;SDS011;30583;48.714;9.386;2022-08-19T07:07:00;25.53;;;21.00;;
44850;SDS011;30583;48.714;9.386;2022-08-19T07:09:28;25.20;;;21.13;;
44850;SDS011;30583;48.714;9.386;2022-08-19T07:11:54;25.77;;;21.42;;
44850;SDS011;30583;48.714;9.386;2022-08-19T07:14:24;30.98;;;25.65;;
44850;SDS011;30583;48.714;9.386;2022-08-19T07:16:51;27.60;;;22.20;;
44850;SDS011;30583;48.714;9.386;2022-08-19T07:19:20;25.90;;;21.80;;
44850;SDS011;30583;48.714;9.386;2022-08-19T07:21:48;29.60;;;23.02;;
44850;SDS011;30583;48.714;9.386;2022-08-19T07:24:17;28.33;;;21.63;;
44850;SDS011;30583;48.714;9.386;2022-08-19T07:26:44;27.73;;;22.40;;
44850;SDS011;30583;48.714;9.386;2022-08-19T07:29:11;27.50;;;21.75;;
44850;SDS011;30583;48.714;9.386;2022-08-19T07:31:37;25.23;;;20.63;;
44850;SDS011;30583;48.714;9.386;2022-08-19T07:34:04;28.10;;;23.05;;
44850;SDS011;30583;48.714;9.386;2022-08-19T07:36:32;27.88;;;23.63;;
44850;SDS011;30583;48.714;9.386;2022-08-19T07:38:59;26.23;;;21.98;;
44850;SDS011;30583;48.714;9.386;2022-08-19T07:41:27;26.02;;;21.35;;
44850;SDS011;30583;48.714;9.386;2022-08-19T07:43:56;27.92;;;22.75;;
44850;SDS011;30583;48.714;9.386;2022-08-19T07:46:23;27.67;;;21.63;;
44850;SDS011;30583;48.714;9.386;2022-08-19T07:48:49;27.05;;;22.67;;
44850;SDS011;30583;48.714;9.386;2022-08-19T07:51:17;25.38;;;20.90;;
44850;SDS011;30583;48.714;9.386;2022-08-19T07:53:46;27.58;;;21.83;;
44850;SDS011;30583;48.714;9.386;2022-08-19T07:56:14;28.88;;;22.17;;
44850;SDS011;30583;48.714;9.386;2022-08-19T07:58:41;36.42;;;26.05;;
44850;SDS011;30583;48.714;9.386;2022-08-19T08:01:10;26.98;;;21.55;;
44850;SDS011;30583;48.714;9.386;2022-08-19T08:03:38;28.25;;;23.00;;
44850;SDS011;30583;48.714;9.386;2022-08-19T08:06:22;28.08;;;21.38;;
44850;SDS011;30583;48.714;9.386;2022-08-19T08:09:07;24.67;;;20.75;;
44850;SDS011;30583;48.714;9.386;2022-08-19T08:11:36;25.05;;;20.73;;
44850;SDS011;30583;48.714;9.386;2022-08-19T08:14:02;26.48;;;21.20;;
44850;SDS011;30583;48.714;9.386;2022-08-19T08:16:29;24.23;;;20.83;;
44850;SDS011;30583;48.714;9.386;2022-08-19T08:18:58;28.08;;;21.98;;
44850;SDS011;30583;48.714;9.386;2022-08-19T08:21:24;28.65;;;21.98;;
44850;SDS011;30583;48.714;9.386;2022-08-19T08:23:49;21.98;;;18.77;;
44850;SDS011;30583;48.714;9.386;2022-08-19T08:26:17;26.88;;;20.80;;
44850;SDS011;30583;48.714;9.386;2022-08-19T08:28:42;26.80;;;21.42;;
44850;SDS011;30583;48.714;9.386;2022-08-19T08:31:08;25.63;;;20.92;;
44850;SDS011;30583;48.714;9.386;2022-08-19T08:33:34;30.90;;;24.02;;
44850;SDS011;30583;48.714;9.386;2022-08-19T08:36:00;24.27;;;20.40;;
44850;SDS011;30583;48.714;9.386;2022-08-19T08:38:27;25.00;;;20.90;;
44850;SDS011;30583;48.714;9.386;2022-08-19T08:40:56;32.97;;;26.50;;
44850;SDS011;30583;48.714;9.386;2022-08-19T08:43:35;27.52;;;22.27;;
44850;SDS011;30583;48.714;9.386;2022-08-19T08:46:08;25.90;;;21.77;;
44850;SDS011;30583;48.714;9.386;2022-08-19T08:48:38;28.58;;;21.92;;
44850;SDS011;30583;48.714;9.386;2022-08-19T08:51:32;23.80;;;19.45;;
44850;SDS011;30583;48.714;9.386;2022-08-19T08:54:05;24.00;;;20.38;;
44850;SDS011;30583;48.714;9.386;2022-08-19T08:56:34;36.08;;;29.00;;
44850;SDS011;30583;48.714;9.386;2022-08-19T08:59:03;28.55;;;23.27;;
44850;SDS011;30583;48.714;9.386;2022-08-19T09:01:33;24.67;;;19.55;;
44850;SDS011;30583;48.714;9.386;2022-08-19T09:04:02;26.42;;;20.83;;
44850;SDS011;30583;48.714;9.386;2022-08-19T09:09:10;23.88;;;20.20;;
44850;SDS011;30583;48.714;9.386;2022-08-19T09:12:06;22.77;;;18.90;;
44850;SDS011;30583;48.714;9.386;2022-08-19T09:14:56;29.75;;;24.95;;
44850;SDS011;30583;48.714;9.386;2022-08-19T09:17:27;26.65;;;22.23;;
44850;SDS011;30583;48.714;9.386;2022-08-19T09:22:37;23.65;;;18.52;;
44850;SDS011;30583;48.714;9.386;2022-08-19T09:25:05;23.90;;;17.95;;
44850;SDS011;30583;48.714;9.386;2022-08-19T09:27:32;20.95;;;18.48;;
44850;SDS011;30583;48.714;9.386;2022-08-19T09:29:58;21.92;;;17.75;;
44850;SDS011;30583;48.714;9.386;2022-08-19T09:32:24;23.23;;;18.95;;
44850;SDS011;30583;48.714;9.386;2022-08-19T09:34:50;25.15;;;21.67;;
44850;SDS011;30583;48.714;9.386;2022-08-19T09:37:19;23.20;;;17.95;;
44850;SDS011;30583;48.714;9.386;2022-08-19T09:39:45;19.90;;;16.58;;
44850;SDS011;30583;48.714;9.386;2022-08-19T09:42:10;20.05;;;16.15;;
44850;SDS011;30583;48.714;9.386;2022-08-19T09:44:39;19.67;;;17.02;;
44850;SDS011;30583;48.714;9.386;2022-08-19T09:47:05;22.45;;;16.38;;
44850;SDS011;30583;48.714;9.386;2022-08-19T09:49:32;20.77;;;17.38;;
44850;SDS011;30583;48.714;9.386;2022-08-19T09:51:58;21.50;;;18.33;;
44850;SDS011;30583;48.714;9.386;2022-08-19T09:54:24;20.95;;;16.52;;
44850;SDS011;30583;48.714;9.386;2022-08-19T09:56:51;19.63;;;16.13;;
44850;SDS011;30583;48.714;9.386;2022-08-19T09:59:18;22.05;;;17.15;;
44850;SDS011;30583;48.714;9.386;2022-08-19T10:01:44;20.30;;;17.63;;
44850;SDS011;30583;48.714;9.386;2022-08-19T10:04:09;23.05;;;17.73;;
44850;SDS011;30583;48.714;9.386;2022-08-19T10:06:36;21.38;;;19.08;;
44850;SDS011;30583;48.714;9.386;2022-08-19T10:09:03;22.40;;;19.42;;
44850;SDS011;30583;48.714;9.386;2022-08-19T10:11:31;24.73;;;21.63;;
44850;SDS011;30583;48.714;9.386;2022-08-19T10:13:58;23.30;;;19.65;;
44850;SDS011;30583;48.714;9.386;2022-08-19T10:16:24;24.30;;;19.33;;
44850;SDS011;30583;48.714;9.386;2022-08-19T10:18:51;27.83;;;19.58;;
44850;SDS011;30583;48.714;9.386;2022-08-19T10:21:21;22.55;;;18.70;;
44850;SDS011;30583;48.714;9.386;2022-08-19T10:23:49;25.85;;;19.75;;
44850;SDS011;30583;48.714;9.386;2022-08-19T10:26:20;25.42;;;19.15;;
44850;SDS011;30583;48.714;9.386;2022-08-19T10:28:48;25.27;;;19.88;;
44850;SDS011;30583;48.714;9.386;2022-08-19T10:31:20;21.10;;;18.83;;
44850;SDS011;30583;48.714;9.386;2022-08-19T10:36:15;23.58;;;18.42;;
44850;SDS011;30583;48.714;9.386;2022-08-19T10:38:43;24.40;;;19.77;;
44850;SDS011;30583;48.714;9.386;2022-08-19T10:41:15;25.67;;;20.58;;
44850;SDS011;30583;48.714;9.386;2022-08-19T10:43:42;26.80;;;19.90;;
44850;SDS011;30583;48.714;9.386;2022-08-19T10:46:10;27.40;;;19.48;;
44850;SDS011;30583;48.714;9.386;2022-08-19T10:48:40;24.08;;;20.27;;
44850;SDS011;30583;48.714;9.386;2022-08-19T10:51:06;23.95;;;19.70;;
44850;SDS011;30583;48.714;9.386;2022-08-19T10:53:51;22.58;;;19.02;;
44850;SDS011;30583;48.714;9.386;2022-08-19T10:56:17;21.33;;;16.35;;
44850;SDS011;30583;48.714;9.386;2022-08-19T10:59:02;23.65;;;20.30;;
44850;SDS011;30583;48.714;9.386;2022-08-19T11:01:29;21.60;;;18.55;;
44850;SDS011;30583;48.714;9.386;2022-08-19T11:03:56;26.52;;;20.08;;
44850;SDS011;30583;48.714;9.386;2022-08-19T11:06:22;27.20;;;18.77;;
44850;SDS011;30583;48.714;9.386;2022-08-19T11:08:54;27.75;;;20.67;;
44850;SDS011;30583;48.714;9.386;2022-08-19T11:11:20;27.63;;;20.45;;
44850;SDS011;30583;48.714;9.386;2022-08-19T11:13:47;26.30;;;20.58;;
44850;SDS011;30583;48.714;9.386;2022-08-19T11:16:16;29.45;;;23.92;;
44850;SDS011;30583;48.714;9.386;2022-08-19T11:18:44;26.23;;;22.33;;
44850;SDS011;30583;48.714;9.386;2022-08-19T11:21:13;33.33;;;27.13;;
44850;SDS011;30583;48.714;9.386;2022-08-19T11:23:41;34.30;;;26.90;;
44850;SDS011;30583;48.714;9.386;2022-08-19T11:26:09;28.33;;;22.90;;
44850;SDS011;30583;48.714;9.386;2022-08-19T11:28:35;30.60;;;24.55;;
44850;SDS011;30583;48.714;9.386;2022-08-19T11:31:01;31.58;;;23.75;;
44850;SDS011;30583;48.714;9.386;2022-08-19T11:33:28;32.60;;;23.30;;
44850;SDS011;30583;48.714;9.386;2022-08-19T11:35:56;28.23;;;23.67;;
44850;SDS011;30583;48.714;9.386;2022-08-19T11:38:24;29.23;;;24.75;;
44850;SDS011;30583;48.714;9.386;2022-08-19T11:40:57;30.13;;;24.80;;
44850;SDS011;30583;48.714;9.386;2022-08-19T11:43:24;28.65;;;23.42;;
44850;SDS011;30583;48.714;9.386;2022-08-19T11:45:51;27.52;;;22.50;;
44850;SDS011;30583;48.714;9.386;2022-08-19T11:48:21;29.90;;;23.42;;
44850;SDS011;30583;48.714;9.386;2022-08-19T11:50:50;27.88;;;24.17;;
44850;SDS011;30583;48.714;9.386;2022-08-19T11:53:18;29.85;;;23.10;;
44850;SDS011;30583;48.714;9.386;2022-08-19T11:55:45;28.95;;;24.15;;
44850;SDS011;30583;48.714;9.386;2022-08-19T11:58:12;30.15;;;23.52;;
44850;SDS011;30583;48.714;9.386;2022-08-19T12:00:39;27.23;;;23.77;;
44850;SDS011;30583;48.714;9.386;2022-08-19T12:03:05;25.90;;;22.20;;
44850;SDS011;30583;48.714;9.386;2022-08-19T12:05:31;27.75;;;22.40;;
44850;SDS011;30583;48.714;9.386;2022-08-19T12:07:56;27.27;;;23.35;;
44850;SDS011;30583;48.714;9.386;2022-08-19T12:10:22;30.63;;;23.63;;
44850;SDS011;30583;48.714;9.386;2022-08-19T12:12:48;29.25;;;22.92;;
44850;SDS011;30583;48.714;9.386;2022-08-19T12:15:14;25.02;;;20.50;;
44850;SDS011;30583;48.714;9.386;2022-08-19T12:17:40;23.02;;;20.02;;
44850;SDS011;30583;48.714;9.386;2022-08-19T12:20:07;26.73;;;21.15;;
44850;SDS011;30583;48.714;9.386;2022-08-19T12:22:35;26.50;;;21.83;;
44850;SDS011;30583;48.714;9.386;2022-08-19T12:25:02;26.58;;;21.70;;
44850;SDS011;30583;48.714;9.386;2022-08-19T12:27:29;27.27;;;22.60;;
44850;SDS011;30583;48.714;9.386;2022-08-19T12:29:55;27.83;;;23.35;;
44850;SDS011;30583;48.714;9.386;2022-08-19T12:32:22;27.23;;;22.85;;
44850;SDS011;30583;48.714;9.386;2022-08-19T12:34:48;31.63;;;24.25;;
44850;SDS011;30583;48.714;9.386;2022-08-19T12:37:14;30.38;;;24.70;;
44850;SDS011;30583;48.714;9.386;2022-08-19T12:39:40;28.60;;;23.70;;
44850;SDS011;30583;48.714;9.386;2022-08-19T12:42:07;26.77;;;21.45;;
44850;SDS011;30583;48.714;9.386;2022-08-19T12:44:37;30.15;;;24.85;;
44850;SDS011;30583;48.714;9.386;2022-08-19T12:47:04;29.13;;;24.33;;
44850;SDS011;30583;48.714;9.386;2022-08-19T12:49:31;26.25;;;22.15;;
44850;SDS011;30583;48.714;9.386;2022-08-19T12:51:59;26.65;;;22.25;;
44850;SDS011;30583;48.714;9.386;2022-08-19T12:54:34;29.80;;;23.63;;
44850;SDS011;30583;48.714;9.386;2022-08-19T12:57:04;26.63;;;22.00;;
44850;SDS011;30583;48.714;9.386;2022-08-19T12:59:31;29.33;;;21.98;;
44850;SDS011;30583;48.714;9.386;2022-08-19T13:01:56;24.77;;;19.60;;
44850;SDS011;30583;48.714;9.386;2022-08-19T13:04:22;24.80;;;20.65;;
44850;SDS011;30583;48.714;9.386;2022-08-19T13:06:47;21.17;;;18.70;;
44850;SDS011;30583;48.714;9.386;2022-08-19T13:09:13;22.17;;;19.15;;
44850;SDS011;30583;48.714;9.386;2022-08-19T13:11:39;22.95;;;20.58;;
44850;SDS011;30583;48.714;9.386;2022-08-19T13:14:04;24.17;;;20.55;;
44850;SDS011;30583;48.714;9.386;2022-08-19T13:16:30;21.83;;;18.25;;
44850;SDS011;30583;48.714;9.386;2022-08-19T13:18:56;22.42;;;19.48;;
44850;SDS011;30583;48.714;9.386;2022-08-19T13:21:24;22.20;;;18.10;;
44850;SDS011;30583;48.714;9.386;2022-08-19T13:23:51;21.92;;;19.05;;
44850;SDS011;30583;48.714;9.386;2022-08-19T13:26:17;22.48;;;18.45;;
44850;SDS011;30583;48.714;9.386;2022-08-19T13:28:44;20.90;;;18.52;;
44850;SDS011;30583;48.714;9.386;2022-08-19T13:31:30;20.70;;;18.40;;
44850;SDS011;30583;48.714;9.386;2022-08-19T13:34:16;21.33;;;18.17;;
44850;SDS011;30583;48.714;9.386;2022-08-19T13:36:44;21.63;;;17.77;;
44850;SDS011;30583;48.714;9.386;2022-08-19T13:39:10;18.38;;;14.40;;
44850;SDS011;30583;48.714;9.386;2022-08-19T13:41:36;15.13;;;12.00;;
44850;SDS011;30583;48.714;9.386;2022-08-19T13:44:07;11.75;;;10.00;;
44850;SDS011;30583;48.714;9.386;2022-08-19T13:46:33;11.35;;;8.77;;
44850;SDS011;30583;48.714;9.386;2022-08-19T13:48:59;17.10;;;13.32;;
44850;SDS011;30583;48.714;9.386;2022-08-19T13:51:24;15.60;;;13.98;;
44850;SDS011;30583;48.714;9.386;2022-08-19T13:53:50;22.15;;;18.45;;
44850;SDS011;30583;48.714;9.386;2022-08-19T13:56:17;12.98;;;11.00;;
44850;SDS011;30583;48.714;9.386;2022-08-19T13:58:46;14.35;;;12.30;;
44850;SDS011;30583;48.714;9.386;2022-08-19T14:01:12;16.73;;;15.02;;
44850;SDS011;30583;48.714;9.386;2022-08-19T14:03:44;19.10;;;17.13;;
44850;SDS011;30583;48.714;9.386;2022-08-19T14:06:10;22.25;;;18.45;;
44850;SDS011;30583;48.714;9.386;2022-08-19T14:08:35;16.27;;;14.52;;
44850;SDS011;30583;48.714;9.386;2022-08-19T14:11:04;22.73;;;20.02;;
44850;SDS011;30583;48.714;9.386;2022-08-19T14:13:30;18.85;;;16.15;;
44850;SDS011;30583;48.714;9.386;2022-08-19T14:15:58;14.48;;;11.70;;
44850;SDS011;30583;48.714;9.386;2022-08-19T14:18:24;20.77;;;16.67;;
44850;SDS011;30583;48.714;9.386;2022-08-19T14:20:51;21.23;;;18.45;;
44850;SDS011;30583;48.714;9.386;2022-08-19T14:23:17;20.05;;;17.48;;
44850;SDS011;30583;48.714;9.386;2022-08-19T14:25:43;23.40;;;19.70;;
44850;SDS011;30583;48.714;9.386;2022-08-19T14:28:09;17.38;;;13.93;;
44850;SDS011;30583;48.714;9.386;2022-08-19T14:30:35;13.80;;;11.65;;
44850;SDS011;30583;48.714;9.386;2022-08-19T14:33:03;12.10;;;10.30;;
44850;SDS011;30583;48.714;9.386;2022-08-19T14:35:31;11.23;;;9.38;;
44850;SDS011;30583;48.714;9.386;2022-08-19T14:38:02;12.90;;;10.73;;
44850;SDS011;30583;48.714;9.386;2022-08-19T14:40:30;24.10;;;19.05;;